Relevés horaires Matro (Suisse)


Relevés horaires à Matro - Samedi 29 Nov. 2014
Heure UTC1 Température [°C] Vent [km/h] Hum. [%] Pres.4 [hPa] Visi. [Km] Nébu. [octa] Préc.5 [mm] Cond.
2m. Res. Ros. Dir.2 Vit. Moy. Raf.3
23:00 1.8 -3.3 1.4 SSE 22.2 22.2 27.8 97 850(0.0/3h) -- -- -- --
22:00 2.2 -1.7 0.9 SSE 14.8 22.2 27.8 91 850(0.4/3h) -- -- -- --
21:00 2.3 -2.6 1.4 SSE 22.2 27.8 31.5 94 850(0.5/3h) -- -- -- --
20:00 2.6 -2.5 0.9 SSE 24.1 27.8 31.5 89 850(0.2/3h) -- -- -- --
19:00 2.7 -2.3 1.1 SSE 24.1 24.1 27.8 89 850(-0.2/3h) -- -- -- --
18:00 3.0 -1.7 0.9 SSE 22.2 22.2 25.9 86 850(-0.4/3h) -- -- -- --
17:00 3.1 -0.6 0.7 ESE 14.8 14.8 16.7 84 850(-0.2/3h) -- -- -- --
16:00 2.5 -0.6 0.4 SSE 11.1 14.8 16.7 86 850(0.0/3h) -- -- -- --
15:00 3.0 0 0.5 S 11.1 22.2 25.9 84 850 -- -- -- --
14:00 2.2 -2.8 1.8 SSE 22.2 22.2 25.9 97 850(-0.3/3h) -- -- -- --
13:00 2.5 -1.9 1.6 SE 18.5 18.5 22.2 94 850(-0.7/3h) -- -- -- --
12:00 2.4 -1.1 0.9 SE 13.0 24.1 27.8 90 850(-0.6/3h) -- -- -- --
11:00 1.7 -2.9 1.4 SSE 18.5 22.2 25.9 98 850(-0.1/3h) -- -- -- --
10:00 1.6 -3.5 1.5 SSE 22.2 24.1 27.8 99 850(0.3/3h) -- -- -- --
09:00 1.7 -3.6 1.7 SSE 24.1 24.1 27.8 100 850(0.6/3h) -- -- -- --
08:00 1.7 -2.9 1.7 SSE 18.5 22.2 25.9 100 850(0.6/3h) -- -- -- --
07:00 1.5 -3.9 1.5 SSE 24.1 24.1 27.8 100 850(0.7/3h) -- -- -- --
06:00 1.5 -3.4 1.5 SE 20.4 33.3 38.9 100 850(0.3/3h) -- -- -- --
05:00 1.4 -3.5 1.4 SSE 20.4 27.8 31.5 100 850(-0.1/3h) -- -- -- --
04:00 1.6 -3.7 1.6 SSE 24.1 27.8 31.5 100 850(-0.2/3h) -- -- -- --
03:00 1.3 -4.6 1.3 SSE 27.8 33.3 38.9 100 850(-0.3/3h) -- -- -- --
02:00 1.4 -4.4 1.4 SSE 27.8 31.5 35.2 100 850(0.0/3h) -- -- -- --
01:00 1.1 -5.2 1.1 SSE 31.5 33.3 38.9 100 850(0.1/3h) -- -- -- --
00:00 1.0 -5.5 0.9 SSE 33.3 42.6 53.7 99 850(0.6/3h) -- -- -- --

1 Coordinated Universal Time. Actuellement il est 06:00 locale et 04:00 UTC.

2 Le vent souffle depuis la direction indiquée vers la direction oposée.

3 Les rafales max. sont disponible 40 min après l'heure du relevé.

4 Pour les stations d'altitude (plus de 600m) le géopotentiel du niveau le plus proche de la pression obligatoire est indiqué.

5 Les stations disposant d'un diffuseur peuvent indiquer "trace". Cela signifie que des précipitations ont touchés le sol mais que la quantité est inférieure à 0.1 mm.

Copyright

Les données affichées sur cette page sont la propriété exclusive de Météo Suisse.

Récapitulatif de la journée
Température [°C] Vent [km/h] Ensoleillement4 [h] Precipitations totale5 [mm] Pression [Hpa]
Min1 Max.2 Moy.3 Max. Min Max.
0.6 3.1 25.4 53.7 0 h 0 min 0 850.0 850.0

1 Température minimale relevée entre 18:00 UTC la veille et 18:00 UTC le jour donné.

2 Température maximale relevée entre 06:00 UTC le jour donné et 06:00 UTC le lendemain.

3 Vent moyen de la journée basé sur les relevés horaires.

4 Ensoleillement en heures relevé entre 06:00 UTC la veille et 06:00 UTC le jour donné.

5 Précipitations totales tombées entre 06:00 UTC la jour donné et 06:00 UTC le lendemain.

Graphiques horaires